sensor_id;sensor_type;location;lat;lon;timestamp;pressure;altitude;pressure_sealevel;temperature;humidity
53011;BME280;42803;55.762;38.084;2023-05-19T00:00:53;100115.59;;;13.69;100.00
53011;BME280;42803;55.762;38.084;2023-05-19T00:03:23;100115.03;;;13.73;100.00
53011;BME280;42803;55.762;38.084;2023-05-19T00:05:54;100118.03;;;13.78;100.00
53011;BME280;42803;55.762;38.084;2023-05-19T00:08:29;100116.88;;;13.74;100.00
53011;BME280;42803;55.762;38.084;2023-05-19T00:10:59;100116.75;;;13.73;100.00
53011;BME280;42803;55.762;38.084;2023-05-19T00:13:30;100127.38;;;13.74;100.00
53011;BME280;42803;55.762;38.084;2023-05-19T00:16:00;100118.69;;;13.75;100.00
53011;BME280;42803;55.762;38.084;2023-05-19T00:18:29;100126.81;;;13.78;100.00
53011;BME280;42803;55.762;38.084;2023-05-19T00:20:58;100126.91;;;13.80;100.00
53011;BME280;42803;55.762;38.084;2023-05-19T00:23:28;100128.50;;;13.89;100.00
53011;BME280;42803;55.762;38.084;2023-05-19T00:25:57;100129.53;;;13.92;100.00
53011;BME280;42803;55.762;38.084;2023-05-19T00:28:26;100133.97;;;13.93;100.00
53011;BME280;42803;55.762;38.084;2023-05-19T00:30:56;100134.19;;;13.96;100.00
53011;BME280;42803;55.762;38.084;2023-05-19T00:33:25;100137.16;;;14.00;100.00
53011;BME280;42803;55.762;38.084;2023-05-19T00:35:54;100134.66;;;14.02;100.00
53011;BME280;42803;55.762;38.084;2023-05-19T00:38:24;100141.50;;;14.00;100.00
53011;BME280;42803;55.762;38.084;2023-05-19T00:40:53;100143.53;;;14.04;100.00
53011;BME280;42803;55.762;38.084;2023-05-19T00:43:22;100133.63;;;14.00;100.00
53011;BME280;42803;55.762;38.084;2023-05-19T00:45:51;100141.50;;;14.00;100.00
53011;BME280;42803;55.762;38.084;2023-05-19T00:48:23;100147.66;;;14.00;100.00
53011;BME280;42803;55.762;38.084;2023-05-19T00:50:54;100145.41;;;14.05;100.00
53011;BME280;42803;55.762;38.084;2023-05-19T00:53:29;100149.50;;;13.89;100.00
53011;BME280;42803;55.762;38.084;2023-05-19T00:56:00;100152.00;;;13.76;100.00
53011;BME280;42803;55.762;38.084;2023-05-19T00:58:32;100151.09;;;13.64;100.00
53011;BME280;42803;55.762;38.084;2023-05-19T01:01:01;100150.84;;;13.61;100.00
53011;BME280;42803;55.762;38.084;2023-05-19T01:03:35;100152.22;;;13.56;100.00
53011;BME280;42803;55.762;38.084;2023-05-19T01:06:05;100152.47;;;13.47;100.00
53011;BME280;42803;55.762;38.084;2023-05-19T01:08:35;100160.09;;;13.44;100.00
53011;BME280;42803;55.762;38.084;2023-05-19T01:11:05;100159.03;;;13.42;100.00
53011;BME280;42803;55.762;38.084;2023-05-19T01:13:35;100161.31;;;13.37;100.00
53011;BME280;42803;55.762;38.084;2023-05-19T01:16:11;100157.88;;;13.38;100.00
53011;BME280;42803;55.762;38.084;2023-05-19T01:18:47;100163.25;;;13.28;100.00
53011;BME280;42803;55.762;38.084;2023-05-19T01:21:58;100165.63;;;13.25;100.00
53011;BME280;42803;55.762;38.084;2023-05-19T01:28:04;100175.13;;;13.13;100.00
53011;BME280;42803;55.762;38.084;2023-05-19T01:30:41;100184.22;;;13.06;100.00
53011;BME280;42803;55.762;38.084;2023-05-19T01:33:13;100180.34;;;13.01;100.00
53011;BME280;42803;55.762;38.084;2023-05-19T01:35:44;100178.94;;;12.95;100.00
53011;BME280;42803;55.762;38.084;2023-05-19T01:38:16;100177.13;;;12.93;100.00
53011;BME280;42803;55.762;38.084;2023-05-19T01:40:48;100183.94;;;12.91;100.00
53011;BME280;42803;55.762;38.084;2023-05-19T01:43:20;100190.31;;;12.95;100.00
53011;BME280;42803;55.762;38.084;2023-05-19T01:45:51;100191.44;;;12.87;100.00
53011;BME280;42803;55.762;38.084;2023-05-19T01:48:21;100189.22;;;12.81;100.00
53011;BME280;42803;55.762;38.084;2023-05-19T01:50:51;100192.69;;;12.70;100.00
53011;BME280;42803;55.762;38.084;2023-05-19T01:53:20;100191.97;;;12.61;100.00
53011;BME280;42803;55.762;38.084;2023-05-19T01:55:53;100196.84;;;12.56;100.00
53011;BME280;42803;55.762;38.084;2023-05-19T01:58:30;100197.94;;;12.48;100.00
53011;BME280;42803;55.762;38.084;2023-05-19T02:01:10;100196.66;;;12.43;100.00
53011;BME280;42803;55.762;38.084;2023-05-19T02:03:57;100194.16;;;12.44;100.00
53011;BME280;42803;55.762;38.084;2023-05-19T02:06:31;100201.88;;;12.43;100.00
53011;BME280;42803;55.762;38.084;2023-05-19T02:09:12;100215.25;;;12.36;100.00
53011;BME280;42803;55.762;38.084;2023-05-19T02:11:46;100199.97;;;12.30;100.00
53011;BME280;42803;55.762;38.084;2023-05-19T02:14:24;100204.84;;;12.26;100.00
53011;BME280;42803;55.762;38.084;2023-05-19T02:16:58;100201.97;;;12.23;100.00
53011;BME280;42803;55.762;38.084;2023-05-19T02:19:30;100200.06;;;12.10;100.00
53011;BME280;42803;55.762;38.084;2023-05-19T02:21:59;100199.13;;;12.09;100.00
53011;BME280;42803;55.762;38.084;2023-05-19T02:24:29;100218.78;;;12.04;100.00
53011;BME280;42803;55.762;38.084;2023-05-19T02:26:59;100214.50;;;11.94;100.00
53011;BME280;42803;55.762;38.084;2023-05-19T02:29:28;100214.53;;;11.84;100.00
53011;BME280;42803;55.762;38.084;2023-05-19T02:31:59;100216.72;;;11.69;100.00
53011;BME280;42803;55.762;38.084;2023-05-19T02:34:29;100213.72;;;11.55;100.00
53011;BME280;42803;55.762;38.084;2023-05-19T02:36:58;100218.84;;;11.43;100.00
53011;BME280;42803;55.762;38.084;2023-05-19T02:39:27;100210.88;;;11.31;100.00
53011;BME280;42803;55.762;38.084;2023-05-19T02:42:02;100222.50;;;11.25;100.00
53011;BME280;42803;55.762;38.084;2023-05-19T02:44:31;100218.03;;;11.13;100.00
53011;BME280;42803;55.762;38.084;2023-05-19T02:47:01;100235.28;;;11.01;100.00
53011;BME280;42803;55.762;38.084;2023-05-19T02:49:30;100238.94;;;11.03;100.00
53011;BME280;42803;55.762;38.084;2023-05-19T02:52:03;100242.00;;;10.79;100.00
53011;BME280;42803;55.762;38.084;2023-05-19T02:54:33;100240.38;;;10.60;100.00
53011;BME280;42803;55.762;38.084;2023-05-19T02:57:02;100252.06;;;10.45;100.00
53011;BME280;42803;55.762;38.084;2023-05-19T02:59:31;100248.44;;;10.24;100.00
53011;BME280;42803;55.762;38.084;2023-05-19T03:02:02;100251.91;;;10.14;100.00
53011;BME280;42803;55.762;38.084;2023-05-19T03:04:31;100259.31;;;10.10;100.00
53011;BME280;42803;55.762;38.084;2023-05-19T03:07:08;100258.13;;;10.06;100.00
53011;BME280;42803;55.762;38.084;2023-05-19T03:09:40;100259.41;;;10.01;100.00
53011;BME280;42803;55.762;38.084;2023-05-19T03:12:09;100260.03;;;9.98;100.00
53011;BME280;42803;55.762;38.084;2023-05-19T03:14:38;100262.78;;;10.00;100.00
53011;BME280;42803;55.762;38.084;2023-05-19T03:17:09;100277.44;;;9.89;100.00
53011;BME280;42803;55.762;38.084;2023-05-19T03:19:38;100269.84;;;9.82;100.00
53011;BME280;42803;55.762;38.084;2023-05-19T03:22:08;100267.00;;;9.70;100.00
53011;BME280;42803;55.762;38.084;2023-05-19T03:24:37;100268.84;;;9.71;100.00
53011;BME280;42803;55.762;38.084;2023-05-19T03:27:07;100276.25;;;9.67;100.00
53011;BME280;42803;55.762;38.084;2023-05-19T03:29:36;100275.31;;;9.66;100.00
53011;BME280;42803;55.762;38.084;2023-05-19T03:32:06;100275.94;;;9.64;100.00
53011;BME280;42803;55.762;38.084;2023-05-19T03:34:37;100281.44;;;9.67;100.00
53011;BME280;42803;55.762;38.084;2023-05-19T03:37:07;100273.91;;;9.70;100.00
53011;BME280;42803;55.762;38.084;2023-05-19T03:39:39;100280.53;;;9.66;100.00
53011;BME280;42803;55.762;38.084;2023-05-19T03:42:08;100283.91;;;9.65;100.00
53011;BME280;42803;55.762;38.084;2023-05-19T03:44:37;100288.16;;;9.73;100.00
53011;BME280;42803;55.762;38.084;2023-05-19T03:47:06;100285.06;;;9.77;100.00
53011;BME280;42803;55.762;38.084;2023-05-19T03:49:39;100286.75;;;9.77;100.00
53011;BME280;42803;55.762;38.084;2023-05-19T03:52:28;100295.41;;;9.86;100.00
53011;BME280;42803;55.762;38.084;2023-05-19T03:55:13;100296.53;;;9.98;100.00
53011;BME280;42803;55.762;38.084;2023-05-19T03:57:43;100293.22;;;10.10;100.00
53011;BME280;42803;55.762;38.084;2023-05-19T04:00:12;100288.06;;;10.20;100.00
53011;BME280;42803;55.762;38.084;2023-05-19T04:02:42;100286.72;;;10.34;100.00
53011;BME280;42803;55.762;38.084;2023-05-19T04:05:13;100292.97;;;10.55;100.00
53011;BME280;42803;55.762;38.084;2023-05-19T04:07:42;100290.94;;;10.71;100.00
53011;BME280;42803;55.762;38.084;2023-05-19T04:10:13;100292.88;;;10.92;100.00
53011;BME280;42803;55.762;38.084;2023-05-19T04:12:42;100287.75;;;10.94;100.00
53011;BME280;42803;55.762;38.084;2023-05-19T04:15:11;100294.69;;;10.93;100.00
53011;BME280;42803;55.762;38.084;2023-05-19T04:17:40;100285.94;;;10.93;100.00
53011;BME280;42803;55.762;38.084;2023-05-19T04:20:12;100286.72;;;11.02;100.00
53011;BME280;42803;55.762;38.084;2023-05-19T04:22:41;100297.06;;;11.01;100.00
53011;BME280;42803;55.762;38.084;2023-05-19T04:25:10;100302.53;;;10.93;100.00
53011;BME280;42803;55.762;38.084;2023-05-19T04:27:39;100303.78;;;10.78;100.00
53011;BME280;42803;55.762;38.084;2023-05-19T04:30:10;100310.38;;;10.64;100.00
53011;BME280;42803;55.762;38.084;2023-05-19T04:32:39;100307.31;;;10.49;100.00
53011;BME280;42803;55.762;38.084;2023-05-19T04:35:09;100312.19;;;10.36;100.00
53011;BME280;42803;55.762;38.084;2023-05-19T04:37:41;100310.78;;;10.21;100.00
53011;BME280;42803;55.762;38.084;2023-05-19T04:40:14;100313.31;;;10.11;100.00
53011;BME280;42803;55.762;38.084;2023-05-19T04:42:44;100309.25;;;10.04;100.00
53011;BME280;42803;55.762;38.084;2023-05-19T04:45:13;100311.88;;;9.95;100.00
53011;BME280;42803;55.762;38.084;2023-05-19T04:47:45;100314.38;;;9.94;100.00
53011;BME280;42803;55.762;38.084;2023-05-19T04:50:16;100317.34;;;9.88;100.00
53011;BME280;42803;55.762;38.084;2023-05-19T04:52:47;100316.28;;;9.86;100.00
53011;BME280;42803;55.762;38.084;2023-05-19T04:55:16;100313.88;;;9.79;100.00
53011;BME280;42803;55.762;38.084;2023-05-19T04:57:47;100315.75;;;9.71;100.00
53011;BME280;42803;55.762;38.084;2023-05-19T05:00:17;100319.78;;;9.68;100.00
53011;BME280;42803;55.762;38.084;2023-05-19T05:02:59;100321.59;;;9.69;100.00
53011;BME280;42803;55.762;38.084;2023-05-19T05:05:33;100318.84;;;9.67;100.00
53011;BME280;42803;55.762;38.084;2023-05-19T05:08:04;100332.31;;;9.72;100.00
53011;BME280;42803;55.762;38.084;2023-05-19T05:10:39;100322.97;;;9.74;100.00
53011;BME280;42803;55.762;38.084;2023-05-19T05:13:09;100336.28;;;9.77;100.00
53011;BME280;42803;55.762;38.084;2023-05-19T05:15:39;100332.91;;;9.78;100.00
53011;BME280;42803;55.762;38.084;2023-05-19T05:18:10;100340.22;;;9.82;100.00
53011;BME280;42803;55.762;38.084;2023-05-19T05:20:40;100333.91;;;9.89;100.00
53011;BME280;42803;55.762;38.084;2023-05-19T05:23:13;100334.44;;;9.95;100.00
53011;BME280;42803;55.762;38.084;2023-05-19T05:25:46;100335.66;;;9.98;100.00
53011;BME280;42803;55.762;38.084;2023-05-19T05:28:16;100343.47;;;9.98;100.00
53011;BME280;42803;55.762;38.084;2023-05-19T05:30:46;100346.00;;;10.07;100.00
53011;BME280;42803;55.762;38.084;2023-05-19T05:33:18;100349.50;;;10.16;100.00
53011;BME280;42803;55.762;38.084;2023-05-19T05:35:49;100345.38;;;10.10;100.00
53011;BME280;42803;55.762;38.084;2023-05-19T05:38:19;100353.72;;;10.06;100.00
53011;BME280;42803;55.762;38.084;2023-05-19T05:40:48;100352.66;;;10.04;100.00
53011;BME280;42803;55.762;38.084;2023-05-19T05:43:19;100351.97;;;9.96;100.00
53011;BME280;42803;55.762;38.084;2023-05-19T05:45:54;100365.91;;;9.96;100.00
53011;BME280;42803;55.762;38.084;2023-05-19T05:48:23;100357.44;;;9.99;100.00
53011;BME280;42803;55.762;38.084;2023-05-19T05:50:53;100360.00;;;10.08;100.00
53011;BME280;42803;55.762;38.084;2023-05-19T05:53:30;100359.00;;;10.16;100.00
53011;BME280;42803;55.762;38.084;2023-05-19T05:56:03;100364.22;;;10.16;100.00
53011;BME280;42803;55.762;38.084;2023-05-19T05:58:41;100365.13;;;10.16;100.00
53011;BME280;42803;55.762;38.084;2023-05-19T06:01:10;100363.44;;;10.17;100.00
53011;BME280;42803;55.762;38.084;2023-05-19T06:03:41;100367.59;;;10.15;100.00
53011;BME280;42803;55.762;38.084;2023-05-19T06:06:15;100374.69;;;10.07;100.00
53011;BME280;42803;55.762;38.084;2023-05-19T06:08:45;100365.84;;;10.05;100.00
53011;BME280;42803;55.762;38.084;2023-05-19T06:11:15;100375.56;;;9.97;100.00
53011;BME280;42803;55.762;38.084;2023-05-19T06:13:47;100376.41;;;10.07;100.00
53011;BME280;42803;55.762;38.084;2023-05-19T06:16:32;100379.72;;;10.14;100.00
53011;BME280;42803;55.762;38.084;2023-05-19T06:19:01;100372.06;;;10.16;100.00
53011;BME280;42803;55.762;38.084;2023-05-19T06:21:31;100370.31;;;10.25;100.00
53011;BME280;42803;55.762;38.084;2023-05-19T06:24:01;100381.63;;;10.34;100.00
53011;BME280;42803;55.762;38.084;2023-05-19T06:26:31;100377.50;;;10.46;100.00
53011;BME280;42803;55.762;38.084;2023-05-19T06:29:00;100381.44;;;10.52;100.00
53011;BME280;42803;55.762;38.084;2023-05-19T06:31:31;100377.09;;;10.42;100.00
53011;BME280;42803;55.762;38.084;2023-05-19T06:34:10;100380.81;;;10.54;100.00
53011;BME280;42803;55.762;38.084;2023-05-19T06:36:41;100384.84;;;10.51;100.00
53011;BME280;42803;55.762;38.084;2023-05-19T06:39:13;100385.34;;;10.46;100.00
53011;BME280;42803;55.762;38.084;2023-05-19T06:41:43;100382.38;;;10.52;100.00
53011;BME280;42803;55.762;38.084;2023-05-19T06:44:24;100380.44;;;10.60;100.00
53011;BME280;42803;55.762;38.084;2023-05-19T06:47:00;100390.59;;;10.57;100.00
53011;BME280;42803;55.762;38.084;2023-05-19T06:49:30;100378.63;;;10.59;100.00
53011;BME280;42803;55.762;38.084;2023-05-19T06:51:59;100392.19;;;10.55;100.00
53011;BME280;42803;55.762;38.084;2023-05-19T06:54:30;100396.31;;;10.53;100.00
53011;BME280;42803;55.762;38.084;2023-05-19T06:56:59;100388.59;;;10.44;100.00
53011;BME280;42803;55.762;38.084;2023-05-19T06:59:29;100393.97;;;10.45;100.00
53011;BME280;42803;55.762;38.084;2023-05-19T07:01:59;100401.22;;;10.39;100.00
53011;BME280;42803;55.762;38.084;2023-05-19T07:04:29;100394.88;;;10.46;100.00
53011;BME280;42803;55.762;38.084;2023-05-19T07:06:58;100393.19;;;10.46;100.00
53011;BME280;42803;55.762;38.084;2023-05-19T07:09:27;100403.19;;;10.42;100.00
53011;BME280;42803;55.762;38.084;2023-05-19T07:11:58;100399.59;;;10.31;100.00
53011;BME280;42803;55.762;38.084;2023-05-19T07:14:29;100401.97;;;10.19;100.00
53011;BME280;42803;55.762;38.084;2023-05-19T07:16:58;100399.84;;;10.15;100.00
53011;BME280;42803;55.762;38.084;2023-05-19T07:19:29;100404.06;;;10.23;100.00
53011;BME280;42803;55.762;38.084;2023-05-19T07:21:58;100401.91;;;10.28;100.00
53011;BME280;42803;55.762;38.084;2023-05-19T07:24:27;100399.03;;;10.44;100.00
53011;BME280;42803;55.762;38.084;2023-05-19T07:26:58;100401.91;;;10.66;100.00
53011;BME280;42803;55.762;38.084;2023-05-19T07:29:29;100398.50;;;11.15;100.00
53011;BME280;42803;55.762;38.084;2023-05-19T07:31:58;100396.66;;;11.74;100.00
53011;BME280;42803;55.762;38.084;2023-05-19T07:34:27;100390.56;;;12.24;100.00
53011;BME280;42803;55.762;38.084;2023-05-19T07:36:56;100391.28;;;12.64;100.00
53011;BME280;42803;55.762;38.084;2023-05-19T07:39:26;100389.47;;;12.53;100.00
53011;BME280;42803;55.762;38.084;2023-05-19T07:41:59;100393.53;;;12.39;100.00
53011;BME280;42803;55.762;38.084;2023-05-19T07:44:30;100393.06;;;12.33;100.00
53011;BME280;42803;55.762;38.084;2023-05-19T07:47:00;100392.09;;;12.42;100.00
53011;BME280;42803;55.762;38.084;2023-05-19T07:49:30;100386.25;;;12.87;100.00
53011;BME280;42803;55.762;38.084;2023-05-19T07:51:59;100386.38;;;13.43;100.00
53011;BME280;42803;55.762;38.084;2023-05-19T07:54:28;100387.59;;;14.14;100.00
53011;BME280;42803;55.762;38.084;2023-05-19T07:56:59;100379.91;;;14.39;100.00
53011;BME280;42803;55.762;38.084;2023-05-19T07:59:28;100392.66;;;14.34;100.00
53011;BME280;42803;55.762;38.084;2023-05-19T08:01:57;100384.84;;;14.01;100.00
53011;BME280;42803;55.762;38.084;2023-05-19T08:04:27;100391.72;;;14.22;100.00
53011;BME280;42803;55.762;38.084;2023-05-19T08:12:08;100373.22;;;14.66;100.00
53011;BME280;42803;55.762;38.084;2023-05-19T08:14:37;100386.09;;;14.86;100.00
53011;BME280;42803;55.762;38.084;2023-05-19T08:17:06;100387.00;;;14.52;100.00
53011;BME280;42803;55.762;38.084;2023-05-19T08:19:35;100386.22;;;14.19;100.00
53011;BME280;42803;55.762;38.084;2023-05-19T08:22:04;100382.91;;;13.76;100.00
53011;BME280;42803;55.762;38.084;2023-05-19T08:24:33;100387.44;;;13.45;100.00
53011;BME280;42803;55.762;38.084;2023-05-19T08:27:03;100387.50;;;13.35;100.00
53011;BME280;42803;55.762;38.084;2023-05-19T08:29:35;100385.16;;;13.28;100.00
53011;BME280;42803;55.762;38.084;2023-05-19T08:32:06;100381.53;;;13.15;100.00
53011;BME280;42803;55.762;38.084;2023-05-19T08:34:39;100383.81;;;13.01;100.00
53011;BME280;42803;55.762;38.084;2023-05-19T08:37:09;100392.25;;;13.29;100.00
53011;BME280;42803;55.762;38.084;2023-05-19T08:39:38;100388.41;;;13.79;100.00
53011;BME280;42803;55.762;38.084;2023-05-19T08:42:08;100385.81;;;14.36;100.00
53011;BME280;42803;55.762;38.084;2023-05-19T08:44:39;100385.19;;;14.74;100.00
53011;BME280;42803;55.762;38.084;2023-05-19T08:47:10;100389.94;;;14.45;100.00
53011;BME280;42803;55.762;38.084;2023-05-19T08:49:43;100397.09;;;14.69;99.46
53011;BME280;42803;55.762;38.084;2023-05-19T08:52:19;100387.34;;;15.52;97.25
53011;BME280;42803;55.762;38.084;2023-05-19T08:54:54;100374.25;;;16.02;91.50
53011;BME280;42803;55.762;38.084;2023-05-19T08:57:28;100371.50;;;16.52;86.83
53011;BME280;42803;55.762;38.084;2023-05-19T08:59:59;100362.59;;;16.50;80.12
53011;BME280;42803;55.762;38.084;2023-05-19T09:02:30;100367.88;;;15.73;89.55
53011;BME280;42803;55.762;38.084;2023-05-19T09:05:00;100387.34;;;15.52;91.34
53011;BME280;42803;55.762;38.084;2023-05-19T09:07:31;100382.38;;;15.31;92.42
53011;BME280;42803;55.762;38.084;2023-05-19T09:10:01;100371.44;;;15.14;90.71
53011;BME280;42803;55.762;38.084;2023-05-19T09:12:31;100376.97;;;14.81;87.11
53011;BME280;42803;55.762;38.084;2023-05-19T09:15:03;100370.56;;;15.01;91.64
53011;BME280;42803;55.762;38.084;2023-05-19T09:17:33;100370.69;;;15.40;88.96
53011;BME280;42803;55.762;38.084;2023-05-19T09:20:05;100361.28;;;16.05;85.34
53011;BME280;42803;55.762;38.084;2023-05-19T09:22:41;100360.19;;;16.53;82.48
53011;BME280;42803;55.762;38.084;2023-05-19T09:25:18;100363.25;;;16.86;77.84
53011;BME280;42803;55.762;38.084;2023-05-19T09:27:48;100361.97;;;16.41;78.77
53011;BME280;42803;55.762;38.084;2023-05-19T09:30:19;100367.38;;;15.79;77.26
53011;BME280;42803;55.762;38.084;2023-05-19T09:32:50;100370.81;;;16.03;78.26
53011;BME280;42803;55.762;38.084;2023-05-19T09:35:19;100358.53;;;16.42;77.73
53011;BME280;42803;55.762;38.084;2023-05-19T09:37:48;100354.72;;;16.90;75.81
53011;BME280;42803;55.762;38.084;2023-05-19T09:40:17;100360.53;;;16.84;74.13
53011;BME280;42803;55.762;38.084;2023-05-19T09:42:47;100355.88;;;16.28;76.46
53011;BME280;42803;55.762;38.084;2023-05-19T09:45:16;100346.94;;;16.13;75.33
53011;BME280;42803;55.762;38.084;2023-05-19T09:47:46;100360.88;;;15.99;77.63
53011;BME280;42803;55.762;38.084;2023-05-19T09:50:16;100364.00;;;15.56;76.03
53011;BME280;42803;55.762;38.084;2023-05-19T09:52:45;100359.63;;;15.94;77.77
53011;BME280;42803;55.762;38.084;2023-05-19T09:55:15;100366.66;;;16.58;73.21
53011;BME280;42803;55.762;38.084;2023-05-19T09:57:46;100355.94;;;16.68;70.70
53011;BME280;42803;55.762;38.084;2023-05-19T10:00:16;100353.50;;;16.71;75.50
53011;BME280;42803;55.762;38.084;2023-05-19T10:02:48;100355.03;;;16.68;69.61
53011;BME280;42803;55.762;38.084;2023-05-19T10:05:19;100363.84;;;16.68;72.94
53011;BME280;42803;55.762;38.084;2023-05-19T10:07:49;100363.41;;;16.49;72.87
53011;BME280;42803;55.762;38.084;2023-05-19T10:10:21;100358.25;;;16.50;69.60
53011;BME280;42803;55.762;38.084;2023-05-19T10:12:51;100350.97;;;16.73;70.22
53011;BME280;42803;55.762;38.084;2023-05-19T10:15:22;100354.19;;;17.22;69.72
53011;BME280;42803;55.762;38.084;2023-05-19T10:17:55;100358.16;;;17.15;64.81
53011;BME280;42803;55.762;38.084;2023-05-19T10:20:26;100357.16;;;17.00;67.86
53011;BME280;42803;55.762;38.084;2023-05-19T10:22:55;100341.91;;;17.22;68.80
53011;BME280;42803;55.762;38.084;2023-05-19T10:25:25;100363.16;;;17.39;66.07
53011;BME280;42803;55.762;38.084;2023-05-19T10:27:56;100344.31;;;17.33;63.75
53011;BME280;42803;55.762;38.084;2023-05-19T10:30:30;100337.31;;;17.61;65.71
53011;BME280;42803;55.762;38.084;2023-05-19T10:33:02;100339.44;;;17.95;64.35
53011;BME280;42803;55.762;38.084;2023-05-19T10:35:58;100340.56;;;18.28;63.81
53011;BME280;42803;55.762;38.084;2023-05-19T10:38:34;100344.53;;;17.64;61.02
53011;BME280;42803;55.762;38.084;2023-05-19T10:41:12;100343.06;;;17.69;65.17
53011;BME280;42803;55.762;38.084;2023-05-19T10:43:46;100334.41;;;17.85;68.38
53011;BME280;42803;55.762;38.084;2023-05-19T10:46:17;100339.28;;;18.07;66.25
53011;BME280;42803;55.762;38.084;2023-05-19T10:48:50;100334.63;;;18.17;63.79
53011;BME280;42803;55.762;38.084;2023-05-19T10:51:19;100328.88;;;17.95;62.56
53011;BME280;42803;55.762;38.084;2023-05-19T10:53:48;100334.75;;;17.63;59.60
53011;BME280;42803;55.762;38.084;2023-05-19T10:56:28;100335.50;;;17.88;60.66
53011;BME280;42803;55.762;38.084;2023-05-19T10:59:00;100335.00;;;18.38;61.42
53011;BME280;42803;55.762;38.084;2023-05-19T11:01:30;100336.72;;;18.67;56.53
53011;BME280;42803;55.762;38.084;2023-05-19T11:04:06;100337.19;;;18.60;58.70
53011;BME280;42803;55.762;38.084;2023-05-19T11:06:35;100342.84;;;18.37;55.49
53011;BME280;42803;55.762;38.084;2023-05-19T11:09:12;100340.44;;;18.12;57.62
53011;BME280;42803;55.762;38.084;2023-05-19T11:11:44;100328.78;;;18.08;56.00
53011;BME280;42803;55.762;38.084;2023-05-19T11:14:16;100332.34;;;17.94;56.81
53011;BME280;42803;55.762;38.084;2023-05-19T11:16:48;100320.22;;;18.42;57.92
53011;BME280;42803;55.762;38.084;2023-05-19T11:19:25;100337.19;;;18.31;53.89
53011;BME280;42803;55.762;38.084;2023-05-19T11:21:56;100337.38;;;18.34;55.12
53011;BME280;42803;55.762;38.084;2023-05-19T11:24:39;100331.31;;;18.66;56.93
53011;BME280;42803;55.762;38.084;2023-05-19T11:27:24;100327.69;;;18.79;53.90
53011;BME280;42803;55.762;38.084;2023-05-19T11:29:55;100326.97;;;18.81;54.90
53011;BME280;42803;55.762;38.084;2023-05-19T11:32:27;100328.38;;;19.22;52.74
53011;BME280;42803;55.762;38.084;2023-05-19T11:34:58;100330.22;;;18.92;53.84
53011;BME280;42803;55.762;38.084;2023-05-19T11:37:33;100340.56;;;18.72;53.45
53011;BME280;42803;55.762;38.084;2023-05-19T11:40:03;100340.75;;;18.75;52.80
53011;BME280;42803;55.762;38.084;2023-05-19T11:42:35;100324.97;;;18.62;54.86
53011;BME280;42803;55.762;38.084;2023-05-19T11:45:07;100334.28;;;18.70;51.70
53011;BME280;42803;55.762;38.084;2023-05-19T11:47:37;100335.25;;;19.18;52.65
53011;BME280;42803;55.762;38.084;2023-05-19T11:50:27;100326.31;;;19.16;55.13
53011;BME280;42803;55.762;38.084;2023-05-19T11:52:59;100325.44;;;19.48;48.98
53011;BME280;42803;55.762;38.084;2023-05-19T11:55:29;100317.78;;;19.86;52.20
53011;BME280;42803;55.762;38.084;2023-05-19T11:57:59;100325.50;;;19.81;53.44
53011;BME280;42803;55.762;38.084;2023-05-19T12:00:36;100333.34;;;19.63;54.49
53011;BME280;42803;55.762;38.084;2023-05-19T12:03:07;100324.88;;;19.54;56.79
53011;BME280;42803;55.762;38.084;2023-05-19T12:05:41;100333.69;;;19.86;54.05
53011;BME280;42803;55.762;38.084;2023-05-19T12:08:12;100330.88;;;19.66;53.11
53011;BME280;42803;55.762;38.084;2023-05-19T12:10:41;100335.63;;;19.57;54.14
53011;BME280;42803;55.762;38.084;2023-05-19T12:13:11;100329.34;;;19.08;54.92
53011;BME280;42803;55.762;38.084;2023-05-19T12:15:40;100335.44;;;18.90;53.65
53011;BME280;42803;55.762;38.084;2023-05-19T12:18:09;100336.97;;;18.87;54.26
53011;BME280;42803;55.762;38.084;2023-05-19T12:20:40;100335.50;;;18.92;54.83
53011;BME280;42803;55.762;38.084;2023-05-19T12:23:09;100333.78;;;19.23;52.61
53011;BME280;42803;55.762;38.084;2023-05-19T12:25:39;100350.94;;;19.15;52.41
53011;BME280;42803;55.762;38.084;2023-05-19T12:28:08;100344.28;;;18.76;51.04
53011;BME280;42803;55.762;38.084;2023-05-19T12:30:38;100349.78;;;18.79;51.30
53011;BME280;42803;55.762;38.084;2023-05-19T12:33:08;100348.88;;;18.79;51.77
53011;BME280;42803;55.762;38.084;2023-05-19T12:35:41;100359.44;;;18.79;51.44
53011;BME280;42803;55.762;38.084;2023-05-19T12:38:12;100358.31;;;18.60;50.07
53011;BME280;42803;55.762;38.084;2023-05-19T12:40:42;100346.47;;;18.68;48.65
53011;BME280;42803;55.762;38.084;2023-05-19T12:43:19;100352.09;;;19.04;49.07
53011;BME280;42803;55.762;38.084;2023-05-19T12:45:49;100354.47;;;18.85;50.61
53011;BME280;42803;55.762;38.084;2023-05-19T12:48:21;100349.94;;;18.67;49.61
53011;BME280;42803;55.762;38.084;2023-05-19T12:50:52;100352.13;;;18.45;49.23
53011;BME280;42803;55.762;38.084;2023-05-19T12:53:25;100359.22;;;18.31;48.55
53011;BME280;42803;55.762;38.084;2023-05-19T12:55:54;100349.59;;;18.32;48.33
53011;BME280;42803;55.762;38.084;2023-05-19T12:58:23;100350.84;;;18.23;48.64
53011;BME280;42803;55.762;38.084;2023-05-19T13:00:57;100350.66;;;18.50;48.14
53011;BME280;42803;55.762;38.084;2023-05-19T13:03:27;100350.34;;;18.73;49.51
53011;BME280;42803;55.762;38.084;2023-05-19T13:05:58;100349.94;;;18.67;48.96